sensor_id;sensor_type;location;lat;lon;timestamp;pressure;altitude;pressure_sealevel;temperature;humidity
35647;BME280;28680;45.642;13.756;2023-04-19T00:00:50;101343.47;;;16.25;100.00
35647;BME280;28680;45.642;13.756;2023-04-19T00:03:16;101345.63;;;16.02;100.00
35647;BME280;28680;45.642;13.756;2023-04-19T00:05:42;101349.22;;;16.11;100.00
35647;BME280;28680;45.642;13.756;2023-04-19T00:08:09;101347.16;;;15.95;100.00
35647;BME280;28680;45.642;13.756;2023-04-19T00:10:35;101339.75;;;15.98;100.00
35647;BME280;28680;45.642;13.756;2023-04-19T00:13:01;101339.50;;;15.92;100.00
35647;BME280;28680;45.642;13.756;2023-04-19T00:15:27;101335.88;;;15.93;100.00
35647;BME280;28680;45.642;13.756;2023-04-19T00:17:53;101342.00;;;15.74;100.00
35647;BME280;28680;45.642;13.756;2023-04-19T00:20:20;101334.03;;;15.54;100.00
35647;BME280;28680;45.642;13.756;2023-04-19T00:22:46;101341.13;;;15.54;100.00
35647;BME280;28680;45.642;13.756;2023-04-19T00:25:12;101335.56;;;15.47;100.00
35647;BME280;28680;45.642;13.756;2023-04-19T00:27:38;101338.75;;;15.51;100.00
35647;BME280;28680;45.642;13.756;2023-04-19T00:30:05;101339.16;;;15.46;100.00
35647;BME280;28680;45.642;13.756;2023-04-19T00:32:31;101334.03;;;15.64;100.00
35647;BME280;28680;45.642;13.756;2023-04-19T00:34:57;101334.31;;;16.00;100.00
35647;BME280;28680;45.642;13.756;2023-04-19T00:37:23;101330.56;;;15.83;100.00
35647;BME280;28680;45.642;13.756;2023-04-19T00:39:48;101330.44;;;15.65;100.00
35647;BME280;28680;45.642;13.756;2023-04-19T00:42:14;101338.06;;;15.68;100.00
35647;BME280;28680;45.642;13.756;2023-04-19T00:44:41;101331.50;;;15.72;100.00
35647;BME280;28680;45.642;13.756;2023-04-19T00:47:07;101330.25;;;15.57;100.00
35647;BME280;28680;45.642;13.756;2023-04-19T00:49:33;101326.22;;;15.63;100.00
35647;BME280;28680;45.642;13.756;2023-04-19T00:51:59;101322.63;;;15.54;100.00
35647;BME280;28680;45.642;13.756;2023-04-19T00:54:25;101322.06;;;15.70;100.00
35647;BME280;28680;45.642;13.756;2023-04-19T00:56:51;101319.69;;;15.57;100.00
35647;BME280;28680;45.642;13.756;2023-04-19T00:59:17;101322.88;;;15.51;100.00
35647;BME280;28680;45.642;13.756;2023-04-19T01:01:43;101311.75;;;15.47;100.00
35647;BME280;28680;45.642;13.756;2023-04-19T01:04:09;101312.88;;;15.45;100.00
35647;BME280;28680;45.642;13.756;2023-04-19T01:06:35;101314.38;;;15.57;100.00
35647;BME280;28680;45.642;13.756;2023-04-19T01:09:03;101309.09;;;15.67;100.00
35647;BME280;28680;45.642;13.756;2023-04-19T01:11:29;101307.31;;;15.87;100.00
35647;BME280;28680;45.642;13.756;2023-04-19T01:13:56;101295.59;;;15.60;100.00
35647;BME280;28680;45.642;13.756;2023-04-19T01:16:26;101296.44;;;15.60;100.00
35647;BME280;28680;45.642;13.756;2023-04-19T01:18:53;101299.06;;;15.60;100.00
35647;BME280;28680;45.642;13.756;2023-04-19T01:21:19;101300.50;;;15.84;100.00
35647;BME280;28680;45.642;13.756;2023-04-19T01:23:45;101305.06;;;15.82;100.00
35647;BME280;28680;45.642;13.756;2023-04-19T01:26:10;101297.25;;;15.61;100.00
35647;BME280;28680;45.642;13.756;2023-04-19T01:28:36;101297.13;;;15.72;100.00
35647;BME280;28680;45.642;13.756;2023-04-19T01:31:02;101294.75;;;15.98;100.00
35647;BME280;28680;45.642;13.756;2023-04-19T01:33:28;101294.22;;;15.85;100.00
35647;BME280;28680;45.642;13.756;2023-04-19T01:35:54;101285.28;;;15.67;100.00
35647;BME280;28680;45.642;13.756;2023-04-19T01:38:20;101290.03;;;15.73;100.00
35647;BME280;28680;45.642;13.756;2023-04-19T01:40:46;101292.94;;;15.70;100.00
35647;BME280;28680;45.642;13.756;2023-04-19T01:43:15;101285.84;;;15.60;100.00
35647;BME280;28680;45.642;13.756;2023-04-19T01:45:41;101286.81;;;15.69;100.00
35647;BME280;28680;45.642;13.756;2023-04-19T01:48:07;101288.09;;;15.65;100.00
35647;BME280;28680;45.642;13.756;2023-04-19T01:50:33;101287.09;;;15.66;100.00
35647;BME280;28680;45.642;13.756;2023-04-19T01:52:59;101281.00;;;15.75;100.00
35647;BME280;28680;45.642;13.756;2023-04-19T01:55:25;101276.38;;;15.68;100.00
35647;BME280;28680;45.642;13.756;2023-04-19T01:57:51;101282.91;;;16.03;100.00
35647;BME280;28680;45.642;13.756;2023-04-19T02:00:19;101288.34;;;15.91;100.00
35647;BME280;28680;45.642;13.756;2023-04-19T02:02:45;101281.53;;;15.59;100.00
35647;BME280;28680;45.642;13.756;2023-04-19T02:05:11;101282.78;;;15.46;100.00
35647;BME280;28680;45.642;13.756;2023-04-19T02:07:37;101288.63;;;15.30;100.00
35647;BME280;28680;45.642;13.756;2023-04-19T02:10:04;101290.56;;;15.28;100.00
35647;BME280;28680;45.642;13.756;2023-04-19T02:12:32;101273.88;;;15.56;100.00
35647;BME280;28680;45.642;13.756;2023-04-19T02:14:59;101276.09;;;15.71;100.00
35647;BME280;28680;45.642;13.756;2023-04-19T02:17:27;101273.19;;;15.84;100.00
35647;BME280;28680;45.642;13.756;2023-04-19T02:19:53;101276.66;;;15.45;100.00
35647;BME280;28680;45.642;13.756;2023-04-19T02:22:20;101268.28;;;15.30;100.00
35647;BME280;28680;45.642;13.756;2023-04-19T02:24:48;101275.22;;;15.21;100.00
35647;BME280;28680;45.642;13.756;2023-04-19T02:27:15;101273.72;;;15.29;100.00
35647;BME280;28680;45.642;13.756;2023-04-19T02:29:41;101268.84;;;15.24;100.00
35647;BME280;28680;45.642;13.756;2023-04-19T02:32:07;101260.34;;;15.30;100.00
35647;BME280;28680;45.642;13.756;2023-04-19T02:34:34;101264.25;;;15.36;100.00
35647;BME280;28680;45.642;13.756;2023-04-19T02:37:00;101253.53;;;15.18;100.00
35647;BME280;28680;45.642;13.756;2023-04-19T02:39:27;101264.25;;;15.16;100.00
35647;BME280;28680;45.642;13.756;2023-04-19T02:41:53;101253.97;;;15.43;100.00
35647;BME280;28680;45.642;13.756;2023-04-19T02:44:18;101253.97;;;15.52;100.00
35647;BME280;28680;45.642;13.756;2023-04-19T02:46:51;101249.38;;;15.54;100.00
35647;BME280;28680;45.642;13.756;2023-04-19T02:49:18;101257.56;;;15.51;100.00
35647;BME280;28680;45.642;13.756;2023-04-19T02:51:44;101251.03;;;15.55;100.00
35647;BME280;28680;45.642;13.756;2023-04-19T02:54:11;101259.25;;;15.43;100.00
35647;BME280;28680;45.642;13.756;2023-04-19T02:56:37;101246.69;;;15.06;100.00
35647;BME280;28680;45.642;13.756;2023-04-19T02:59:04;101252.41;;;15.20;100.00
35647;BME280;28680;45.642;13.756;2023-04-19T03:01:31;101245.44;;;15.10;100.00
35647;BME280;28680;45.642;13.756;2023-04-19T03:03:57;101246.81;;;15.04;100.00
35647;BME280;28680;45.642;13.756;2023-04-19T03:06:23;101234.16;;;14.98;100.00
35647;BME280;28680;45.642;13.756;2023-04-19T03:08:49;101234.72;;;15.01;100.00
35647;BME280;28680;45.642;13.756;2023-04-19T03:11:16;101239.16;;;14.91;100.00
35647;BME280;28680;45.642;13.756;2023-04-19T03:13:42;101236.50;;;14.81;100.00
35647;BME280;28680;45.642;13.756;2023-04-19T03:16:08;101236.22;;;14.85;100.00
35647;BME280;28680;45.642;13.756;2023-04-19T03:18:34;101241.94;;;14.90;100.00
35647;BME280;28680;45.642;13.756;2023-04-19T03:21:01;101237.38;;;14.92;100.00
35647;BME280;28680;45.642;13.756;2023-04-19T03:23:27;101241.72;;;15.32;100.00
35647;BME280;28680;45.642;13.756;2023-04-19T03:25:53;101240.03;;;15.01;100.00
35647;BME280;28680;45.642;13.756;2023-04-19T03:28:19;101230.13;;;14.94;100.00
35647;BME280;28680;45.642;13.756;2023-04-19T03:30:45;101226.34;;;14.87;100.00
35647;BME280;28680;45.642;13.756;2023-04-19T03:33:12;101228.31;;;14.85;100.00
35647;BME280;28680;45.642;13.756;2023-04-19T03:35:37;101233.56;;;14.75;100.00
35647;BME280;28680;45.642;13.756;2023-04-19T03:38:03;101221.75;;;14.79;100.00
35647;BME280;28680;45.642;13.756;2023-04-19T03:40:32;101219.81;;;14.81;100.00
35647;BME280;28680;45.642;13.756;2023-04-19T03:42:58;101223.03;;;14.94;100.00
35647;BME280;28680;45.642;13.756;2023-04-19T03:45:24;101219.25;;;14.87;100.00
35647;BME280;28680;45.642;13.756;2023-04-19T03:47:50;101222.03;;;14.86;100.00
35647;BME280;28680;45.642;13.756;2023-04-19T03:50:16;101218.44;;;14.87;100.00
35647;BME280;28680;45.642;13.756;2023-04-19T03:52:42;101228.56;;;14.81;100.00
35647;BME280;28680;45.642;13.756;2023-04-19T03:55:09;101231.50;;;14.78;100.00
35647;BME280;28680;45.642;13.756;2023-04-19T03:57:36;101223.56;;;14.78;100.00
35647;BME280;28680;45.642;13.756;2023-04-19T04:00:02;101238.16;;;14.73;100.00
35647;BME280;28680;45.642;13.756;2023-04-19T04:02:31;101234.66;;;14.72;100.00
35647;BME280;28680;45.642;13.756;2023-04-19T04:04:57;101237.16;;;14.74;100.00
35647;BME280;28680;45.642;13.756;2023-04-19T04:07:23;101237.41;;;14.61;100.00
35647;BME280;28680;45.642;13.756;2023-04-19T04:09:50;101238.97;;;14.64;100.00
35647;BME280;28680;45.642;13.756;2023-04-19T04:12:16;101239.53;;;14.67;100.00
35647;BME280;28680;45.642;13.756;2023-04-19T04:14:42;101235.66;;;14.71;100.00
35647;BME280;28680;45.642;13.756;2023-04-19T04:17:08;101240.34;;;14.68;100.00
35647;BME280;28680;45.642;13.756;2023-04-19T04:19:33;101236.88;;;14.67;100.00
35647;BME280;28680;45.642;13.756;2023-04-19T04:21:59;101239.66;;;14.66;100.00
35647;BME280;28680;45.642;13.756;2023-04-19T04:24:25;101237.47;;;14.71;100.00
35647;BME280;28680;45.642;13.756;2023-04-19T04:26:52;101239.13;;;14.72;100.00
35647;BME280;28680;45.642;13.756;2023-04-19T04:29:18;101226.06;;;14.80;100.00
35647;BME280;28680;45.642;13.756;2023-04-19T04:31:44;101230.22;;;14.73;100.00
35647;BME280;28680;45.642;13.756;2023-04-19T04:34:10;101234.94;;;14.69;100.00
35647;BME280;28680;45.642;13.756;2023-04-19T04:36:35;101233.00;;;14.71;100.00
35647;BME280;28680;45.642;13.756;2023-04-19T04:39:03;101228.31;;;14.85;100.00
35647;BME280;28680;45.642;13.756;2023-04-19T04:41:29;101236.50;;;14.81;100.00
35647;BME280;28680;45.642;13.756;2023-04-19T04:43:59;101226.34;;;14.77;100.00
35647;BME280;28680;45.642;13.756;2023-04-19T04:46:25;101227.63;;;15.12;100.00
35647;BME280;28680;45.642;13.756;2023-04-19T04:48:52;101238.06;;;14.94;100.00
35647;BME280;28680;45.642;13.756;2023-04-19T04:51:18;101228.88;;;14.88;100.00
35647;BME280;28680;45.642;13.756;2023-04-19T04:53:44;101238.31;;;14.91;100.00
35647;BME280;28680;45.642;13.756;2023-04-19T04:56:11;101240.69;;;14.84;100.00
35647;BME280;28680;45.642;13.756;2023-04-19T04:58:37;101237.47;;;14.80;100.00
35647;BME280;28680;45.642;13.756;2023-04-19T05:01:03;101242.19;;;14.77;100.00
35647;BME280;28680;45.642;13.756;2023-04-19T05:03:29;101245.53;;;14.79;100.00
35647;BME280;28680;45.642;13.756;2023-04-19T05:05:55;101232.59;;;14.86;100.00
35647;BME280;28680;45.642;13.756;2023-04-19T05:08:21;101226.94;;;15.00;100.00
35647;BME280;28680;45.642;13.756;2023-04-19T05:10:47;101234.59;;;15.03;100.00
35647;BME280;28680;45.642;13.756;2023-04-19T05:13:13;101231.53;;;14.98;100.00
35647;BME280;28680;45.642;13.756;2023-04-19T05:15:38;101226.50;;;14.95;100.00
35647;BME280;28680;45.642;13.756;2023-04-19T05:18:05;101225.97;;;15.01;100.00
35647;BME280;28680;45.642;13.756;2023-04-19T05:20:31;101229.16;;;15.05;100.00
35647;BME280;28680;45.642;13.756;2023-04-19T05:22:59;101230.56;;;14.99;100.00
35647;BME280;28680;45.642;13.756;2023-04-19T05:25:26;101224.72;;;14.95;100.00
35647;BME280;28680;45.642;13.756;2023-04-19T05:27:52;101216.63;;;14.87;100.00
35647;BME280;28680;45.642;13.756;2023-04-19T05:30:18;101218.44;;;14.87;100.00
35647;BME280;28680;45.642;13.756;2023-04-19T05:32:44;101220.13;;;15.07;100.00
35647;BME280;28680;45.642;13.756;2023-04-19T05:35:11;101213.59;;;15.01;100.00
35647;BME280;28680;45.642;13.756;2023-04-19T05:37:37;101215.66;;;14.98;100.00
35647;BME280;28680;45.642;13.756;2023-04-19T05:40:04;101224.84;;;15.04;100.00
35647;BME280;28680;45.642;13.756;2023-04-19T05:42:31;101224.72;;;14.95;100.00
35647;BME280;28680;45.642;13.756;2023-04-19T05:44:56;101217.75;;;14.94;100.00
35647;BME280;28680;45.642;13.756;2023-04-19T05:47:22;101221.19;;;14.85;100.00
35647;BME280;28680;45.642;13.756;2023-04-19T05:49:48;101214.81;;;14.88;100.00
35647;BME280;28680;45.642;13.756;2023-04-19T05:52:14;101219.94;;;14.89;100.00
35647;BME280;28680;45.642;13.756;2023-04-19T05:54:40;101223.59;;;14.88;100.00
35647;BME280;28680;45.642;13.756;2023-04-19T05:57:06;101221.63;;;14.90;100.00
35647;BME280;28680;45.642;13.756;2023-04-19T05:59:32;101215.66;;;14.98;100.00
35647;BME280;28680;45.642;13.756;2023-04-19T06:01:58;101211.22;;;14.98;100.00
35647;BME280;28680;45.642;13.756;2023-04-19T06:04:26;101210.81;;;15.13;100.00
35647;BME280;28680;45.642;13.756;2023-04-19T06:06:52;101211.50;;;15.05;100.00
35647;BME280;28680;45.642;13.756;2023-04-19T06:09:18;101210.38;;;15.08;100.00
35647;BME280;28680;45.642;13.756;2023-04-19T06:11:44;101214.72;;;15.28;100.00
35647;BME280;28680;45.642;13.756;2023-04-19T06:14:11;101210.81;;;15.13;100.00
35647;BME280;28680;45.642;13.756;2023-04-19T06:16:40;101216.38;;;15.19;100.00
35647;BME280;28680;45.642;13.756;2023-04-19T06:19:06;101215.41;;;15.20;100.00
35647;BME280;28680;45.642;13.756;2023-04-19T06:21:33;101216.94;;;15.23;100.00
35647;BME280;28680;45.642;13.756;2023-04-19T06:23:59;101213.88;;;15.28;100.00
35647;BME280;28680;45.642;13.756;2023-04-19T06:26:25;101217.78;;;15.33;100.00
35647;BME280;28680;45.642;13.756;2023-04-19T06:28:51;101217.22;;;15.30;100.00
35647;BME280;28680;45.642;13.756;2023-04-19T06:31:17;101222.91;;;15.25;100.00
35647;BME280;28680;45.642;13.756;2023-04-19T06:33:44;101215.41;;;15.30;100.00
35647;BME280;28680;45.642;13.756;2023-04-19T06:36:10;101225.84;;;15.32;100.00
35647;BME280;28680;45.642;13.756;2023-04-19T06:38:36;101221.38;;;15.32;100.00
35647;BME280;28680;45.642;13.756;2023-04-19T06:41:06;101214.84;;;15.36;100.00
35647;BME280;28680;45.642;13.756;2023-04-19T06:43:33;101206.38;;;15.43;100.00
35647;BME280;28680;45.642;13.756;2023-04-19T06:45:59;101212.59;;;15.51;100.00
35647;BME280;28680;45.642;13.756;2023-04-19T06:48:25;101219.56;;;15.52;100.00
35647;BME280;28680;45.642;13.756;2023-04-19T06:50:52;101214.28;;;15.52;100.00
35647;BME280;28680;45.642;13.756;2023-04-19T06:53:19;101213.56;;;15.60;100.00
35647;BME280;28680;45.642;13.756;2023-04-19T06:55:45;101215.22;;;15.61;100.00
35647;BME280;28680;45.642;13.756;2023-04-19T06:58:11;101212.03;;;15.57;100.00
35647;BME280;28680;45.642;13.756;2023-04-19T07:00:37;101213.28;;;15.63;100.00
35647;BME280;28680;45.642;13.756;2023-04-19T07:03:03;101223.19;;;15.71;100.00
35647;BME280;28680;45.642;13.756;2023-04-19T07:05:30;101218.72;;;15.81;100.00
35647;BME280;28680;45.642;13.756;2023-04-19T07:07:56;101213.00;;;15.86;100.00
35647;BME280;28680;45.642;13.756;2023-04-19T07:10:22;101216.78;;;15.83;100.00
35647;BME280;28680;45.642;13.756;2023-04-19T07:12:49;101221.06;;;15.94;100.00
35647;BME280;28680;45.642;13.756;2023-04-19T07:15:15;101211.53;;;16.11;100.00
35647;BME280;28680;45.642;13.756;2023-04-19T07:17:41;101208.84;;;16.21;100.00
35647;BME280;28680;45.642;13.756;2023-04-19T07:20:07;101207.84;;;16.31;100.00
35647;BME280;28680;45.642;13.756;2023-04-19T07:22:34;101206.50;;;16.45;100.00
35647;BME280;28680;45.642;13.756;2023-04-19T07:25:00;101207.19;;;16.47;100.00
35647;BME280;28680;45.642;13.756;2023-04-19T07:27:26;101210.53;;;16.49;100.00
35647;BME280;28680;45.642;13.756;2023-04-19T07:29:52;101208.81;;;16.58;100.00
35647;BME280;28680;45.642;13.756;2023-04-19T07:32:18;101202.31;;;16.70;100.00
35647;BME280;28680;45.642;13.756;2023-04-19T07:34:44;101205.34;;;16.85;100.00
35647;BME280;28680;45.642;13.756;2023-04-19T07:37:10;101206.88;;;17.06;100.00
35647;BME280;28680;45.642;13.756;2023-04-19T07:39:37;101208.28;;;17.18;100.00
35647;BME280;28680;45.642;13.756;2023-04-19T07:42:03;101208.50;;;17.07;100.00
35647;BME280;28680;45.642;13.756;2023-04-19T07:44:29;101210.97;;;17.00;100.00
35647;BME280;28680;45.642;13.756;2023-04-19T07:46:55;101208.16;;;17.38;100.00
35647;BME280;28680;45.642;13.756;2023-04-19T07:49:21;101212.16;;;17.42;100.00
35647;BME280;28680;45.642;13.756;2023-04-19T07:51:47;101201.84;;;17.39;100.00
35647;BME280;28680;45.642;13.756;2023-04-19T07:54:14;101210.19;;;17.44;100.00
35647;BME280;28680;45.642;13.756;2023-04-19T07:56:41;101197.59;;;17.46;100.00
35647;BME280;28680;45.642;13.756;2023-04-19T07:59:07;101205.00;;;17.60;100.00
35647;BME280;28680;45.642;13.756;2023-04-19T08:01:32;101204.41;;;17.48;100.00
35647;BME280;28680;45.642;13.756;2023-04-19T08:03:58;101197.16;;;17.32;100.00
35647;BME280;28680;45.642;13.756;2023-04-19T08:06:24;101200.72;;;17.41;100.00
35647;BME280;28680;45.642;13.756;2023-04-19T08:08:51;101200.81;;;17.76;100.00
35647;BME280;28680;45.642;13.756;2023-04-19T08:11:17;101206.59;;;17.97;100.00
35647;BME280;28680;45.642;13.756;2023-04-19T08:13:43;101200.38;;;18.15;100.00
35647;BME280;28680;45.642;13.756;2023-04-19T08:16:10;101196.47;;;18.27;100.00
35647;BME280;28680;45.642;13.756;2023-04-19T08:18:37;101196.59;;;18.25;100.00
35647;BME280;28680;45.642;13.756;2023-04-19T08:21:03;101196.31;;;18.28;100.00
35647;BME280;28680;45.642;13.756;2023-04-19T08:23:29;101191.34;;;18.34;100.00
35647;BME280;28680;45.642;13.756;2023-04-19T08:25:55;101187.03;;;18.41;100.00
35647;BME280;28680;45.642;13.756;2023-04-19T08:28:21;101186.75;;;18.52;100.00
35647;BME280;28680;45.642;13.756;2023-04-19T08:30:47;101183.47;;;18.58;100.00
35647;BME280;28680;45.642;13.756;2023-04-19T08:33:14;101173.50;;;18.68;100.00
35647;BME280;28680;45.642;13.756;2023-04-19T08:35:40;101171.34;;;18.72;100.00
35647;BME280;28680;45.642;13.756;2023-04-19T08:38:07;101178.06;;;18.93;100.00
35647;BME280;28680;45.642;13.756;2023-04-19T08:40:33;101167.13;;;19.04;100.00
35647;BME280;28680;45.642;13.756;2023-04-19T08:43:04;101172.25;;;19.22;100.00
35647;BME280;28680;45.642;13.756;2023-04-19T08:45:32;101168.59;;;19.47;100.00
35647;BME280;28680;45.642;13.756;2023-04-19T08:47:58;101161.63;;;19.55;100.00
35647;BME280;28680;45.642;13.756;2023-04-19T08:50:26;101162.09;;;19.66;100.00
35647;BME280;28680;45.642;13.756;2023-04-19T08:52:53;101159.25;;;19.68;100.00
35647;BME280;28680;45.642;13.756;2023-04-19T08:55:18;101155.28;;;19.72;100.00
35647;BME280;28680;45.642;13.756;2023-04-19T08:57:44;101153.91;;;19.84;100.00
35647;BME280;28680;45.642;13.756;2023-04-19T09:00:11;101148.38;;;20.02;100.00
35647;BME280;28680;45.642;13.756;2023-04-19T09:02:51;101139.06;;;20.38;100.00
35647;BME280;28680;45.642;13.756;2023-04-19T09:05:18;101135.91;;;20.66;100.00
35647;BME280;28680;45.642;13.756;2023-04-19T09:07:45;101134.97;;;20.81;100.00
35647;BME280;28680;45.642;13.756;2023-04-19T09:10:17;101138.75;;;21.10;86.40
35647;BME280;28680;45.642;13.756;2023-04-19T09:13:02;101128.16;;;21.02;79.09
35647;BME280;28680;45.642;13.756;2023-04-19T09:15:40;101127.25;;;21.10;82.92
35647;BME280;28680;45.642;13.756;2023-04-19T09:18:10;101126.72;;;20.91;97.50
35647;BME280;28680;45.642;13.756;2023-04-19T09:20:42;101125.22;;;20.89;100.00
35647;BME280;28680;45.642;13.756;2023-04-19T09:23:17;101114.19;;;21.15;94.94
35647;BME280;28680;45.642;13.756;2023-04-19T09:26:00;101119.69;;;21.13;100.00
35647;BME280;28680;45.642;13.756;2023-04-19T09:28:27;101105.19;;;21.31;91.35
35647;BME280;28680;45.642;13.756;2023-04-19T09:30:54;101109.44;;;21.25;100.00
35647;BME280;28680;45.642;13.756;2023-04-19T09:33:37;101110.50;;;21.16;100.00
35647;BME280;28680;45.642;13.756;2023-04-19T09:36:07;101110.59;;;21.22;100.00
35647;BME280;28680;45.642;13.756;2023-04-19T09:38:49;101104.94;;;21.40;100.00
35647;BME280;28680;45.642;13.756;2023-04-19T09:41:15;101095.25;;;21.39;100.00
35647;BME280;28680;45.642;13.756;2023-04-19T09:43:44;101097.03;;;21.32;100.00
35647;BME280;28680;45.642;13.756;2023-04-19T09:46:36;101099.41;;;21.27;100.00
35647;BME280;28680;45.642;13.756;2023-04-19T09:49:19;101110.06;;;21.27;100.00
35647;BME280;28680;45.642;13.756;2023-04-19T09:51:50;101093.78;;;21.37;100.00
35647;BME280;28680;45.642;13.756;2023-04-19T09:54:19;101100.38;;;21.64;100.00
35647;BME280;28680;45.642;13.756;2023-04-19T09:56:47;101092.91;;;21.89;100.00
35647;BME280;28680;45.642;13.756;2023-04-19T09:59:13;101094.13;;;21.57;100.00
35647;BME280;28680;45.642;13.756;2023-04-19T10:01:47;101093.84;;;21.67;100.00
35647;BME280;28680;45.642;13.756;2023-04-19T10:04:15;101092.09;;;21.74;100.00
35647;BME280;28680;45.642;13.756;2023-04-19T10:06:54;101078.75;;;21.74;100.00
35647;BME280;28680;45.642;13.756;2023-04-19T10:09:21;101073.28;;;21.82;100.00
35647;BME280;28680;45.642;13.756;2023-04-19T10:11:49;101067.25;;;22.10;100.00
35647;BME280;28680;45.642;13.756;2023-04-19T10:14:21;101068.22;;;22.24;100.00
35647;BME280;28680;45.642;13.756;2023-04-19T10:16:47;101071.44;;;22.19;100.00
35647;BME280;28680;45.642;13.756;2023-04-19T10:19:16;101063.50;;;22.41;99.11
35647;BME280;28680;45.642;13.756;2023-04-19T10:21:43;101058.91;;;22.34;100.00
35647;BME280;28680;45.642;13.756;2023-04-19T10:24:13;101067.69;;;22.28;100.00
35647;BME280;28680;45.642;13.756;2023-04-19T10:27:08;101066.16;;;22.84;100.00
35647;BME280;28680;45.642;13.756;2023-04-19T10:30:01;101061.31;;;23.22;100.00
35647;BME280;28680;45.642;13.756;2023-04-19T10:32:44;101058.41;;;23.17;100.00
35647;BME280;28680;45.642;13.756;2023-04-19T10:35:21;101055.59;;;23.25;100.00
35647;BME280;28680;45.642;13.756;2023-04-19T10:38:13;101048.34;;;23.54;100.00
35647;BME280;28680;45.642;13.756;2023-04-19T10:41:00;101043.78;;;23.54;100.00
35647;BME280;28680;45.642;13.756;2023-04-19T10:43:37;101039.88;;;23.92;100.00
35647;BME280;28680;45.642;13.756;2023-04-19T10:46:34;101035.38;;;24.06;89.78
35647;BME280;28680;45.642;13.756;2023-04-19T10:49:03;101025.72;;;24.25;86.42
35647;BME280;28680;45.642;13.756;2023-04-19T10:51:39;101024.50;;;24.34;86.44
35647;BME280;28680;45.642;13.756;2023-04-19T10:57:02;101014.19;;;24.31;76.81
35647;BME280;28680;45.642;13.756;2023-04-19T10:59:35;101014.84;;;24.53;81.84
35647;BME280;28680;45.642;13.756;2023-04-19T11:07:16;101001.59;;;24.31;74.48
35647;BME280;28680;45.642;13.756;2023-04-19T11:09:47;101002.00;;;24.42;75.31
35647;BME280;28680;45.642;13.756;2023-04-19T11:12:16;100990.50;;;24.61;76.53
35647;BME280;28680;45.642;13.756;2023-04-19T11:14:46;100991.50;;;24.87;76.63
35647;BME280;28680;45.642;13.756;2023-04-19T11:17:30;100988.19;;;25.05;75.72
35647;BME280;28680;45.642;13.756;2023-04-19T11:20:05;100981.13;;;25.17;73.34
35647;BME280;28680;45.642;13.756;2023-04-19T11:22:33;100978.03;;;25.14;75.33
35647;BME280;28680;45.642;13.756;2023-04-19T11:25:19;100978.25;;;25.05;73.06
35647;BME280;28680;45.642;13.756;2023-04-19T11:27:48;100976.19;;;25.14;76.58
35647;BME280;28680;45.642;13.756;2023-04-19T11:30:21;100975.94;;;25.29;85.34
35647;BME280;28680;45.642;13.756;2023-04-19T11:32:55;100978.81;;;25.41;84.16
35647;BME280;28680;45.642;13.756;2023-04-19T11:35:26;100972.19;;;25.43;89.75
35647;BME280;28680;45.642;13.756;2023-04-19T11:37:55;100977.34;;;25.38;100.00
35647;BME280;28680;45.642;13.756;2023-04-19T11:40:24;100968.63;;;25.56;95.98
35647;BME280;28680;45.642;13.756;2023-04-19T11:42:58;100964.13;;;25.37;87.64
35647;BME280;28680;45.642;13.756;2023-04-19T11:45:27;100959.41;;;25.39;82.86
35647;BME280;28680;45.642;13.756;2023-04-19T11:47:55;100961.53;;;24.97;85.54
35647;BME280;28680;45.642;13.756;2023-04-19T11:50:37;100956.44;;;24.62;94.23
35647;BME280;28680;45.642;13.756;2023-04-19T11:53:21;100946.91;;;24.79;97.15
35647;BME280;28680;45.642;13.756;2023-04-19T11:55:53;100953.75;;;24.75;90.83
35647;BME280;28680;45.642;13.756;2023-04-19T12:00:56;100942.34;;;25.00;82.44
35647;BME280;28680;45.642;13.756;2023-04-19T12:03:25;100944.03;;;24.74;86.61
35647;BME280;28680;45.642;13.756;2023-04-19T12:06:01;100944.84;;;24.48;94.16
35647;BME280;28680;45.642;13.756;2023-04-19T12:08:34;100935.56;;;24.10;91.80
35647;BME280;28680;45.642;13.756;2023-04-19T12:11:00;100930.00;;;24.05;87.69
35647;BME280;28680;45.642;13.756;2023-04-19T12:13:28;100931.44;;;24.21;87.93
35647;BME280;28680;45.642;13.756;2023-04-19T12:15:56;100932.69;;;24.32;89.45
35647;BME280;28680;45.642;13.756;2023-04-19T12:18:22;100925.69;;;24.44;100.00
35647;BME280;28680;45.642;13.756;2023-04-19T12:20:50;100924.00;;;24.43;100.00
35647;BME280;28680;45.642;13.756;2023-04-19T12:23:18;100923.16;;;24.76;98.98
35647;BME280;28680;45.642;13.756;2023-04-19T12:25:47;100913.66;;;24.87;97.26
35647;BME280;28680;45.642;13.756;2023-04-19T12:28:14;100901.00;;;25.07;91.65
35647;BME280;28680;45.642;13.756;2023-04-19T12:30:41;100903.81;;;25.33;84.70
35647;BME280;28680;45.642;13.756;2023-04-19T12:33:07;100900.25;;;25.45;81.97
35647;BME280;28680;45.642;13.756;2023-04-19T12:35:34;100908.50;;;25.82;79.33
35647;BME280;28680;45.642;13.756;2023-04-19T12:38:03;100918.09;;;25.33;100.00
35647;BME280;28680;45.642;13.756;2023-04-19T12:40:30;100922.56;;;25.84;97.92
35647;BME280;28680;45.642;13.756;2023-04-19T12:42:55;100916.03;;;26.31;88.91
35647;BME280;28680;45.642;13.756;2023-04-19T12:45:21;100921.44;;;25.99;89.27